Cape Cod CGAS, MA

8:27 PM EDT on April 24, 2018 (GMT -0400)
Cape Cod Coast Guard Air Station

Weather History for KFMH - August, 2012

Change the Weather History Date:

Sunday, August 19, 2012

  Actual Average Record
Temperature  
Mean Temperature 65 °F -  
Max Temperature 73 °F 75 °F 89 °F (2002)
Min Temperature 57 °F 60 °F 50 °F (2007)
Growing Degree Days 15 (Base 50)    
Moisture  
Dew Point 61 °F    
Average Humidity 85    
Maximum Humidity 100    
Minimum Humidity 63    
Precipitation  
Precipitation 0.00 in - - ()
Sea Level Pressure  
Sea Level Pressure 29.93 in    
Wind  
Wind Speed 4 mph (NNE)    
Max Wind Speed 14 mph    
Max Gust Speed -    
Visibility 10 miles    
Events      
Averages and records for this station are not official NWS values.
T = Trace of Precipitation, MM = Missing Value Source: NWS Daily Summary

Daily Weather History Graph

Daily Weather History Graph

Search for Another Location

Airport or City:

Astronomy

Aug. 19, 2012 Rise Set
Actual Time 5:55 AM EDT 7:35 PM EDT
Civil Twilight 5:25 AM EDT 8:04 PM EDT
Nautical Twilight 4:49 AM EDT 8:40 PM EDT
Astronomical Twilight 4:11 AM EDT 9:18 PM EDT
Moon 8:09 AM EDT (8/19) 8:19 PM EDT (8/19)
Length of Visible Light 14h 38m
Length of Day
13h 40m
Waxing Crescent, 5% of the Moon is Illuminated
Aug 19
Waxing Crescent
Aug 24
First Quarter
Aug 31
Full
Sep 8
Last Quarter
Sep 15
New

Hourly Weather History & Observations

Time (EDT) Temp. Dew Point Humidity Pressure Visibility Wind Dir Wind Speed Gust Speed Precip Events Conditions
12:15 AM 60.8 °F 59.0 °F 94% 29.89 in 10.0 mi NW 4.6 mph - N/A   Mostly Cloudy
12:35 AM 62.6 °F 60.8 °F 94% 29.89 in 10.0 mi NNW 5.8 mph - N/A   Clear
12:55 AM 62.6 °F 60.8 °F 94% 29.89 in 10.0 mi NNW 5.8 mph - N/A   Clear
1:15 AM 62.6 °F 60.8 °F 94% 29.89 in 10.0 mi North 5.8 mph - N/A   Clear
1:35 AM 60.8 °F 59.0 °F 94% 29.89 in 10.0 mi North 3.5 mph - N/A   Clear
1:55 AM 60.8 °F 59.0 °F 94% 29.88 in 10.0 mi East 3.5 mph - N/A   Clear
2:15 AM 59.0 °F 59.0 °F 100% 29.89 in 10.0 mi NNE 4.6 mph - N/A   Clear
2:35 AM 60.8 °F 59.0 °F 94% 29.89 in 10.0 mi North 3.5 mph - N/A   Clear
2:55 AM 59.0 °F 59.0 °F 100% 29.89 in 10.0 mi Calm Calm - N/A   Clear
3:15 AM 59.0 °F 57.2 °F 94% 29.89 in 8.0 mi North 3.5 mph - N/A   Clear
3:35 AM 59.0 °F 59.0 °F 100% 29.89 in 10.0 mi Calm Calm - N/A   Clear
3:55 AM 57.2 °F 57.2 °F 100% 29.89 in 10.0 mi Calm Calm - N/A   Clear
4:15 AM 57.2 °F 57.2 °F 100% 29.89 in 10.0 mi Calm Calm - N/A   Clear
4:35 AM 57.2 °F 57.2 °F 100% 29.89 in 10.0 mi Calm Calm - N/A   Clear
4:55 AM 59.0 °F 57.2 °F 94% 29.89 in 10.0 mi Calm Calm - N/A   Mostly Cloudy
5:15 AM 59.0 °F 59.0 °F 100% 29.90 in 10.0 mi North 3.5 mph - N/A   Overcast
5:35 AM 59.0 °F 59.0 °F 100% 29.91 in 10.0 mi NW 3.5 mph - N/A   Overcast
5:55 AM 59.0 °F 59.0 °F 100% 29.92 in 10.0 mi North 3.5 mph - N/A   Mostly Cloudy
6:15 AM 60.8 °F 59.0 °F 94% 29.92 in 10.0 mi North 5.8 mph - N/A   Mostly Cloudy
6:35 AM 60.8 °F 59.0 °F 94% 29.92 in 10.0 mi North 5.8 mph - N/A   Partly Cloudy
6:55 AM 60.8 °F 59.0 °F 94% 29.92 in 10.0 mi North 4.6 mph - N/A   Clear
7:15 AM 62.6 °F 60.8 °F 94% 29.93 in 10.0 mi North 3.5 mph - N/A   Clear
7:55 AM 64.4 °F 62.6 °F 94% 29.94 in 10.0 mi North 5.8 mph - N/A   Clear
8:15 AM 66.2 °F 62.6 °F 88% 29.94 in 10.0 mi NNE 8.1 mph - N/A   Clear
8:35 AM 66.2 °F 64.4 °F 94% 29.94 in 10.0 mi NNE 5.8 mph - N/A   Scattered Clouds
8:55 AM 68.0 °F 64.4 °F 88% 29.93 in 10.0 mi NE 8.1 mph - N/A   Mostly Cloudy
9:15 AM 69.8 °F 64.4 °F 83% 29.94 in 10.0 mi NE 6.9 mph - N/A   Mostly Cloudy
9:35 AM 69.8 °F 64.4 °F 83% 29.94 in 10.0 mi NE 6.9 mph - N/A   Mostly Cloudy
9:55 AM 69.8 °F 62.6 °F 78% 29.94 in 10.0 mi NE 5.8 mph - N/A   Mostly Cloudy
10:15 AM 71.6 °F 64.4 °F 78% 29.94 in 10.0 mi NNE 6.9 mph - N/A   Mostly Cloudy
10:35 AM 69.8 °F 62.6 °F 78% 29.95 in 10.0 mi NE 9.2 mph - N/A   Mostly Cloudy
10:55 AM 71.6 °F 64.4 °F 78% 29.94 in 10.0 mi NNE 6.9 mph - N/A   Mostly Cloudy
11:15 AM 69.8 °F 62.6 °F 78% 29.94 in 10.0 mi NE 6.9 mph - N/A   Mostly Cloudy
11:35 AM 69.8 °F 62.6 °F 78% 29.95 in 10.0 mi NE 8.1 mph - N/A   Mostly Cloudy
11:55 AM 69.8 °F 62.6 °F 78% 29.95 in 10.0 mi North 6.9 mph - N/A   Mostly Cloudy
12:15 PM 71.6 °F 62.6 °F 73% 29.94 in 10.0 mi NE 6.9 mph - N/A   Scattered Clouds
12:35 PM 71.6 °F 62.6 °F 73% 29.94 in 10.0 mi North 4.6 mph - N/A   Mostly Cloudy
12:55 PM 71.6 °F 62.6 °F 73% 29.95 in 10.0 mi Calm Calm - N/A   Scattered Clouds
1:15 PM 73.4 °F 62.6 °F 69% 29.96 in 10.0 mi Calm Calm - N/A   Partly Cloudy
1:35 PM 71.6 °F 62.6 °F 73% 29.96 in 10.0 mi ENE 4.6 mph - N/A   Partly Cloudy
1:55 PM 73.4 °F 62.6 °F 69% 29.94 in 10.0 mi NE 8.1 mph - N/A   Clear
2:15 PM 71.6 °F 62.6 °F 73% 29.94 in 10.0 mi NE 5.8 mph - N/A   Partly Cloudy
2:35 PM 73.4 °F 62.6 °F 69% 29.94 in 10.0 mi NNE 8.1 mph - N/A   Clear
2:55 PM 71.6 °F 62.6 °F 73% 29.94 in 10.0 mi North 6.9 mph - N/A   Clear
3:15 PM 71.6 °F 62.6 °F 73% 29.94 in 10.0 mi North 5.8 mph - N/A   Clear
3:35 PM 71.6 °F 62.6 °F 73% 29.94 in 10.0 mi NNE 5.8 mph - N/A   Clear
3:55 PM 71.6 °F 62.6 °F 73% 29.93 in 10.0 mi NNE 8.1 mph - N/A   Clear
4:15 PM 71.6 °F 62.6 °F 73% 29.93 in 10.0 mi NNE 8.1 mph - N/A   Clear
4:35 PM 69.8 °F 62.6 °F 78% 29.93 in 10.0 mi NNE 5.8 mph - N/A   Clear
4:55 PM 68.0 °F 62.6 °F 83% 29.93 in 10.0 mi NE 8.1 mph - N/A   Clear
5:15 PM 68.0 °F 62.6 °F 83% 29.93 in 10.0 mi NNE 5.8 mph - N/A   Clear
5:35 PM 68.0 °F 60.8 °F 78% 29.92 in 10.0 mi NNE 5.8 mph - N/A   Clear
5:55 PM 68.0 °F 60.8 °F 78% 29.92 in 10.0 mi NE 5.8 mph - N/A   Scattered Clouds
6:15 PM 68.0 °F 60.8 °F 78% 29.92 in 10.0 mi NNE 4.6 mph - N/A   Partly Cloudy
6:35 PM 68.0 °F 60.8 °F 78% 29.92 in 10.0 mi NNE 5.8 mph - N/A   Mostly Cloudy
6:55 PM 68.0 °F 62.6 °F 83% 29.93 in 10.0 mi NNE 3.5 mph - N/A   Mostly Cloudy
7:15 PM 66.2 °F 60.8 °F 83% 29.94 in 10.0 mi NE 3.5 mph - N/A   Mostly Cloudy
7:35 PM 66.2 °F 60.8 °F 83% 29.94 in 10.0 mi NE 4.6 mph - N/A   Mostly Cloudy
7:55 PM 66.2 °F 60.8 °F 83% 29.94 in 10.0 mi West 4.6 mph - N/A   Mostly Cloudy
8:15 PM 66.2 °F 60.8 °F 83% 29.94 in 10.0 mi Calm Calm - N/A   Overcast
8:35 PM 66.2 °F 60.8 °F 83% 29.95 in 10.0 mi Calm Calm - N/A   Mostly Cloudy
8:55 PM 64.4 °F 59.0 °F 83% 29.95 in 10.0 mi Calm Calm - N/A   Mostly Cloudy
9:15 PM 66.2 °F 59.0 °F 78% 29.95 in 10.0 mi Calm Calm - N/A   Mostly Cloudy
9:35 PM 64.4 °F 59.0 °F 83% 29.95 in 10.0 mi Calm Calm - N/A   Scattered Clouds
9:55 PM 64.4 °F 59.0 °F 83% 29.94 in 10.0 mi Calm Calm - N/A   Clear
10:15 PM 62.6 °F 59.0 °F 88% 29.94 in 10.0 mi Calm Calm - N/A   Clear
10:35 PM 62.6 °F 59.0 °F 88% 29.94 in 10.0 mi Calm Calm - N/A   Clear
10:55 PM 60.8 °F 59.0 °F 94% 29.94 in 10.0 mi Calm Calm - N/A   Clear
11:15 PM 62.6 °F 59.0 °F 88% 29.94 in 10.0 mi Calm Calm - N/A   Clear
11:35 PM 60.8 °F 59.0 °F 94% 29.94 in 10.0 mi Calm Calm - N/A   Clear
11:55 PM 62.6 °F 59.0 °F 88% 29.93 in 10.0 mi Calm Calm - N/A   Clear